createdAt,value
2019-05-11T00:00:27.464Z,3.97
2019-05-11T00:02:56.008Z,4.03
2019-05-11T00:05:24.532Z,3.53
2019-05-11T00:07:53.008Z,3.73
2019-05-11T00:10:23.486Z,3.93
2019-05-11T00:12:51.676Z,4.63
2019-05-11T00:15:20.287Z,4.83
2019-05-11T00:17:48.822Z,4.93
2019-05-11T00:20:17.304Z,4.87
2019-05-11T00:22:45.871Z,4.60
2019-05-11T00:25:14.779Z,5.23
2019-05-11T00:27:43.260Z,4.73
2019-05-11T00:30:12.545Z,4.87
2019-05-11T00:32:41.095Z,4.13
2019-05-11T00:35:09.703Z,5.23
2019-05-11T00:37:38.272Z,3.93
2019-05-11T00:40:14.360Z,5.30
2019-05-11T00:42:37.156Z,4.37
2019-05-11T00:45:06.950Z,4.70
2019-05-11T00:47:35.501Z,4.50
2019-05-11T00:50:04.999Z,4.77
2019-05-11T00:52:33.475Z,4.43
2019-05-11T00:55:01.944Z,4.50
2019-05-11T00:57:30.504Z,4.27
2019-05-11T00:59:59.078Z,4.30
2019-05-11T01:02:27.598Z,4.23
2019-05-11T01:04:56.079Z,4.13
2019-05-11T01:07:24.609Z,4.37
2019-05-11T01:09:53.142Z,4.70
2019-05-11T01:12:21.623Z,4.23
2019-05-11T01:14:50.083Z,4.53
2019-05-11T01:17:18.674Z,4.07
2019-05-11T01:19:47.264Z,4.50
2019-05-11T01:22:15.738Z,4.10
2019-05-11T01:24:44.217Z,4.83
2019-05-11T01:27:12.743Z,4.53
2019-05-11T01:29:41.290Z,4.47
2019-05-11T01:32:09.838Z,4.97
2019-05-11T01:34:38.394Z,3.97
2019-05-11T01:37:06.908Z,5.00
2019-05-11T01:39:35.381Z,4.23
2019-05-11T01:42:03.910Z,4.63
2019-05-11T01:44:32.412Z,5.00
2019-05-11T01:47:00.938Z,5.80
2019-05-11T01:49:29.409Z,4.80
2019-05-11T01:51:57.879Z,5.30
2019-05-11T01:54:26.364Z,5.07
2019-05-11T01:56:54.898Z,5.63
2019-05-11T01:59:23.396Z,4.80
2019-05-11T02:01:51.817Z,5.50
2019-05-11T02:04:20.298Z,4.57
2019-05-11T02:06:48.796Z,4.60
2019-05-11T02:09:17.228Z,5.70
2019-05-11T02:11:45.664Z,5.70
2019-05-11T02:14:14.105Z,6.60
2019-05-11T02:16:42.524Z,5.80
2019-05-11T02:19:10.959Z,6.40
2019-05-11T02:21:39.382Z,6.17
2019-05-11T02:24:07.819Z,6.30
2019-05-11T02:26:36.246Z,6.00
2019-05-11T02:29:04.751Z,6.13
2019-05-11T02:31:33.431Z,6.67
2019-05-11T02:34:02.039Z,6.30
2019-05-11T02:36:30.451Z,8.10
2019-05-11T02:38:58.897Z,6.60
2019-05-11T02:41:36.043Z,7.87
2019-05-11T02:43:57.486Z,7.10
2019-05-11T02:46:25.906Z,6.70
2019-05-11T02:48:54.339Z,5.93
2019-05-11T02:51:23.097Z,7.43
2019-05-11T02:53:52.783Z,7.33
2019-05-11T02:56:21.200Z,8.93
2019-05-11T02:58:49.635Z,7.90
2019-05-11T03:01:18.059Z,8.40
2019-05-11T03:03:46.500Z,9.70
2019-05-11T03:06:14.981Z,10.63
2019-05-11T03:08:43.498Z,10.30
2019-05-11T03:11:11.927Z,10.40
2019-05-11T03:13:40.653Z,11.03
2019-05-11T03:16:09.074Z,11.10
2019-05-11T03:18:37.536Z,12.57
2019-05-11T03:21:05.948Z,13.57
2019-05-11T03:23:34.383Z,13.13
2019-05-11T03:26:02.813Z,15.10
2019-05-11T03:28:31.255Z,13.40
2019-05-11T03:30:59.727Z,14.13
2019-05-11T03:33:28.481Z,13.97
2019-05-11T03:35:56.914Z,13.97
2019-05-11T03:38:25.348Z,13.27
2019-05-11T03:40:53.777Z,15.60
2019-05-11T03:43:22.204Z,15.10
2019-05-11T03:45:50.653Z,15.77
2019-05-11T03:48:19.396Z,16.97
2019-05-11T03:50:47.830Z,15.00
2019-05-11T03:53:16.264Z,17.30
2019-05-11T03:55:44.761Z,15.90
2019-05-11T03:58:13.209Z,16.47
2019-05-11T04:00:41.655Z,16.10
2019-05-11T04:03:10.170Z,15.90
2019-05-11T04:05:38.606Z,17.67
2019-05-11T04:08:07.072Z,17.30
2019-05-11T04:10:35.576Z,19.20
2019-05-11T04:13:04.020Z,16.90
2019-05-11T04:15:32.527Z,16.63
2019-05-11T04:18:00.965Z,16.90
2019-05-11T04:20:29.427Z,14.90
2019-05-11T04:22:57.920Z,16.53
2019-05-11T04:25:26.366Z,16.17
2019-05-11T04:27:54.793Z,17.80
2019-05-11T04:30:23.243Z,17.17
2019-05-11T04:32:51.678Z,16.60
2019-05-11T04:35:20.124Z,18.30
2019-05-11T04:37:48.630Z,14.00
2019-05-11T04:40:17.145Z,14.60
2019-05-11T04:42:55.015Z,13.40
2019-05-11T04:45:15.891Z,16.00
2019-05-11T04:47:44.322Z,15.50
2019-05-11T04:50:13.037Z,7.63
2019-05-11T04:52:41.554Z,13.20
2019-05-11T04:55:10.139Z,13.40
2019-05-11T04:57:38.563Z,13.40
2019-05-11T05:00:08.015Z,15.27
2019-05-11T05:02:36.453Z,11.17
2019-05-11T05:05:06.651Z,12.50
2019-05-11T05:07:35.067Z,14.50
2019-05-11T05:10:03.780Z,14.87
2019-05-11T05:12:32.202Z,17.57
2019-05-11T05:15:00.635Z,16.33
2019-05-11T05:17:29.077Z,16.13
2019-05-11T05:19:57.528Z,16.80
2019-05-11T05:22:28.032Z,18.03
2019-05-11T05:24:56.150Z,16.63
2019-05-11T05:27:24.577Z,16.77
2019-05-11T05:29:53.026Z,17.53
2019-05-11T05:32:21.468Z,17.97
2019-05-11T05:34:50.171Z,18.43
2019-05-11T05:37:18.591Z,17.03
2019-05-11T05:39:47.045Z,16.23
2019-05-11T05:42:15.491Z,15.90
2019-05-11T05:44:43.943Z,17.03
2019-05-11T05:47:12.393Z,15.50
2019-05-11T05:49:40.886Z,15.50
2019-05-11T05:52:09.406Z,16.60
2019-05-11T05:54:38.056Z,16.03
2019-05-11T05:57:06.572Z,15.60
2019-05-11T05:59:35.026Z,15.43
2019-05-11T06:02:03.471Z,14.47
2019-05-11T06:04:31.924Z,12.77
2019-05-11T06:07:00.408Z,14.33
2019-05-11T06:09:28.884Z,13.20
2019-05-11T06:11:57.340Z,14.67
2019-05-11T06:14:25.790Z,15.40
2019-05-11T06:16:54.316Z,13.63
2019-05-11T06:19:22.756Z,14.57
2019-05-11T06:21:51.204Z,14.57
2019-05-11T06:24:19.630Z,14.40
2019-05-11T06:26:48.143Z,15.37
2019-05-11T06:29:16.571Z,13.43
2019-05-11T06:31:45.031Z,12.30
2019-05-11T06:34:13.459Z,14.07
2019-05-11T06:36:41.919Z,14.40
2019-05-11T06:39:10.347Z,14.77
2019-05-11T06:41:38.801Z,21.20
2019-05-11T06:44:07.231Z,18.80
2019-05-11T06:46:35.720Z,18.30
2019-05-11T06:49:04.146Z,14.23
2019-05-11T06:51:32.605Z,14.30
2019-05-11T06:54:01.036Z,14.50
2019-05-11T06:56:29.482Z,14.30
2019-05-11T06:59:17.250Z,15.80
2019-05-11T07:01:45.766Z,19.20
2019-05-11T07:04:14.519Z,17.23
2019-05-11T07:06:42.972Z,18.07
2019-05-11T07:09:11.403Z,18.20
2019-05-11T07:11:39.847Z,25.20
2019-05-11T07:14:20.048Z,20.50
2019-05-11T07:16:38.730Z,16.70
2019-05-11T07:19:07.177Z,14.43
2019-05-11T07:21:35.682Z,11.27
2019-05-11T07:24:04.111Z,10.43
2019-05-11T07:26:32.564Z,10.77
2019-05-11T07:29:01.007Z,8.80
2019-05-11T07:31:29.459Z,10.27
2019-05-11T07:33:58.705Z,8.37
2019-05-11T07:36:28.251Z,8.77
2019-05-11T07:38:57.999Z,8.50
2019-05-11T07:41:28.110Z,9.93
2019-05-11T07:43:58.893Z,7.20
2019-05-11T07:46:28.806Z,8.23
2019-05-11T07:48:58.471Z,6.00
2019-05-11T07:51:28.741Z,6.53
2019-05-11T07:53:57.862Z,6.83
2019-05-11T07:56:28.467Z,6.83
2019-05-11T07:58:58.071Z,7.60
2019-05-11T08:01:28.130Z,7.03
2019-05-11T08:03:58.624Z,7.80
2019-05-11T08:06:28.518Z,7.00
2019-05-11T08:08:58.768Z,10.77
2019-05-11T08:11:31.123Z,8.80
2019-05-11T08:13:58.436Z,8.07
2019-05-11T08:16:28.631Z,7.80
2019-05-11T08:18:58.883Z,6.37
2019-05-11T08:21:28.337Z,6.60
2019-05-11T08:23:58.719Z,5.97
2019-05-11T08:26:28.277Z,8.57
2019-05-11T08:28:57.895Z,6.73
2019-05-11T08:31:27.907Z,8.23
2019-05-11T08:33:58.291Z,6.63
2019-05-11T08:36:28.926Z,6.30
2019-05-11T08:38:58.589Z,4.30
2019-05-11T08:41:28.137Z,2.90
2019-05-11T08:43:58.707Z,3.03
2019-05-11T08:46:27.894Z,1.80
2019-05-11T08:48:56.558Z,2.20
2019-05-11T08:51:24.998Z,2.03
2019-05-11T08:53:53.694Z,2.50
2019-05-11T08:56:22.121Z,2.50
2019-05-11T08:58:50.544Z,2.10
2019-05-11T09:01:18.987Z,2.17
2019-05-11T09:03:47.921Z,1.83
2019-05-11T09:06:17.899Z,1.87
2019-05-11T09:08:49.124Z,2.07
2019-05-11T09:11:18.820Z,1.50
2019-05-11T09:13:48.823Z,1.70
2019-05-11T09:16:18.962Z,1.20
2019-05-11T09:18:48.065Z,1.30
2019-05-11T09:21:18.768Z,1.20
2019-05-11T09:23:48.601Z,1.40
2019-05-11T09:26:18.196Z,1.17
2019-05-11T09:28:47.595Z,1.50
2019-05-11T09:31:18.598Z,1.67
2019-05-11T09:33:48.019Z,1.20
2019-05-11T09:36:18.085Z,1.10
2019-05-11T09:38:49.027Z,1.20
2019-05-11T09:41:18.093Z,1.00
2019-05-11T09:43:48.305Z,1.33
2019-05-11T09:46:18.852Z,0.97
2019-05-11T09:48:48.452Z,1.10
2019-05-11T09:51:18.458Z,1.07
2019-05-11T09:53:48.211Z,1.60
2019-05-11T09:56:18.369Z,1.20
2019-05-11T09:58:47.963Z,1.13
2019-05-11T10:01:18.213Z,1.10
2019-05-11T10:03:48.132Z,0.93
2019-05-11T10:06:19.095Z,1.10
2019-05-11T10:08:48.779Z,1.03
2019-05-11T10:11:18.979Z,1.63
2019-05-11T10:13:47.810Z,1.93
2019-05-11T10:16:17.816Z,2.10
2019-05-11T10:18:48.890Z,1.60
2019-05-11T10:21:18.748Z,1.20
2019-05-11T10:23:48.889Z,1.10
2019-05-11T10:26:18.780Z,0.90
2019-05-11T10:28:48.156Z,1.00
2019-05-11T10:31:18.172Z,0.90
2019-05-11T10:33:49.017Z,1.00
2019-05-11T10:36:18.932Z,1.30
2019-05-11T10:38:48.604Z,1.00
2019-05-11T10:41:18.060Z,1.00
2019-05-11T10:43:48.889Z,1.00
2019-05-11T10:46:22.959Z,1.20
2019-05-11T10:48:48.172Z,0.80
2019-05-11T10:51:18.425Z,0.83
2019-05-11T10:53:51.685Z,1.00
2019-05-11T10:56:17.898Z,0.90
2019-05-11T10:58:48.285Z,1.00
2019-05-11T11:01:18.211Z,1.60
2019-05-11T11:03:48.424Z,1.50
2019-05-11T11:06:18.862Z,1.43
2019-05-11T11:08:48.661Z,1.00
2019-05-11T11:11:18.542Z,1.70
2019-05-11T11:13:48.073Z,2.47
2019-05-11T11:16:32.774Z,1.80
2019-05-11T11:18:48.593Z,1.93
2019-05-11T11:21:22.106Z,1.40
2019-05-11T11:23:48.031Z,1.80
2019-05-11T11:26:18.470Z,2.00
2019-05-11T11:28:47.728Z,1.00
2019-05-11T11:31:18.555Z,2.40
2019-05-11T11:33:48.626Z,3.80
2019-05-11T11:36:17.900Z,6.13
2019-05-11T11:38:47.862Z,1.40
2019-05-11T11:41:18.650Z,1.10
2019-05-11T11:43:48.372Z,1.60
2019-05-11T11:46:18.719Z,0.87
2019-05-11T11:48:48.956Z,1.00
2019-05-11T11:51:18.788Z,1.00
2019-05-11T11:53:47.922Z,1.13
2019-05-11T11:56:18.913Z,1.50
2019-05-11T11:58:48.745Z,1.60
2019-05-11T12:01:18.981Z,0.93
2019-05-11T12:03:48.828Z,1.30
2019-05-11T12:06:18.198Z,1.87
2019-05-11T12:08:49.362Z,2.03
2019-05-11T12:11:18.616Z,2.10
2019-05-11T12:13:47.561Z,0.90
2019-05-11T12:16:18.056Z,1.20
2019-05-11T12:18:48.408Z,1.40
2019-05-11T12:21:18.588Z,2.20
2019-05-11T12:23:48.617Z,1.30
2019-05-11T12:26:17.737Z,1.00
2019-05-11T12:28:48.768Z,1.07
2019-05-11T12:31:18.380Z,0.73
2019-05-11T12:33:48.298Z,1.50
2019-05-11T12:36:18.713Z,1.20
2019-05-11T12:38:48.894Z,0.90
2019-05-11T12:41:19.009Z,1.20
2019-05-11T12:43:48.998Z,1.20
2019-05-11T12:46:18.967Z,1.30
2019-05-11T12:48:48.438Z,1.30
2019-05-11T12:51:18.715Z,1.33
2019-05-11T12:53:47.755Z,1.27
2019-05-11T12:56:18.781Z,1.20
2019-05-11T12:58:48.934Z,2.33
2019-05-11T13:01:18.842Z,1.33
2019-05-11T13:03:48.992Z,1.90
2019-05-11T13:06:19.057Z,1.20
2019-05-11T13:08:48.046Z,1.10
2019-05-11T13:11:18.704Z,1.90
2019-05-11T13:13:48.409Z,1.67
2019-05-11T13:16:18.349Z,2.07
2019-05-11T13:18:48.711Z,1.10
2019-05-11T13:21:18.324Z,1.10
2019-05-11T13:23:48.853Z,0.80
2019-05-11T13:26:18.007Z,0.77
2019-05-11T13:28:48.505Z,1.17
2019-05-11T13:31:18.769Z,0.90
2019-05-11T13:33:47.919Z,0.80
2019-05-11T13:36:18.614Z,1.03
2019-05-11T13:38:48.388Z,0.80
2019-05-11T13:41:18.769Z,1.10
2019-05-11T13:43:48.639Z,1.43
2019-05-11T13:46:17.940Z,0.90
2019-05-11T13:48:47.604Z,1.30
2019-05-11T13:51:18.355Z,1.50
2019-05-11T13:53:48.133Z,1.83
2019-05-11T13:56:18.322Z,1.40
2019-05-11T13:58:48.780Z,1.77
2019-05-11T14:01:18.507Z,1.90
2019-05-11T14:03:48.585Z,2.07
2019-05-11T14:06:18.345Z,1.20
2019-05-11T14:08:48.107Z,1.13
2019-05-11T14:11:18.267Z,1.10
2019-05-11T14:13:47.993Z,1.10
2019-05-11T14:16:18.563Z,1.70
2019-05-11T14:18:48.679Z,1.40
2019-05-11T14:21:18.510Z,1.80
2019-05-11T14:23:48.382Z,1.53
2019-05-11T14:26:19.209Z,1.30
2019-05-11T14:28:47.951Z,1.10
2019-05-11T14:31:18.566Z,1.00
2019-05-11T14:33:48.694Z,1.10
2019-05-11T14:36:18.427Z,1.23
2019-05-11T14:38:48.785Z,1.40
2019-05-11T14:41:18.228Z,0.90
2019-05-11T14:43:48.934Z,1.40
2019-05-11T14:46:18.071Z,1.97
2019-05-11T14:48:48.186Z,1.37
2019-05-11T14:51:18.094Z,1.23
2019-05-11T14:53:48.094Z,1.23
2019-05-11T14:56:19.020Z,1.30
2019-05-11T14:58:49.051Z,1.70
2019-05-11T15:01:18.425Z,1.10
2019-05-11T15:03:48.676Z,1.10
2019-05-11T15:06:18.947Z,1.60
2019-05-11T15:08:47.906Z,0.90
2019-05-11T15:11:18.843Z,0.70
2019-05-11T15:13:48.744Z,0.80
2019-05-11T15:16:18.648Z,0.70
2019-05-11T15:18:48.436Z,1.00
2019-05-11T15:21:18.879Z,0.90
2019-05-11T15:23:47.723Z,0.80
2019-05-11T15:26:18.484Z,0.80
2019-05-11T15:28:48.474Z,0.70
2019-05-11T15:31:21.975Z,0.67
2019-05-11T15:33:48.836Z,0.80
2019-05-11T15:36:19.011Z,0.60
2019-05-11T15:38:48.106Z,0.70
2019-05-11T15:41:17.739Z,0.90
2019-05-11T15:43:48.026Z,1.20
2019-05-11T15:46:19.525Z,1.00
2019-05-11T15:48:56.816Z,1.13
2019-05-11T15:51:18.737Z,1.40
2019-05-11T15:53:47.582Z,1.00
2019-05-11T15:56:19.122Z,1.07
2019-05-11T15:58:48.556Z,0.90
2019-05-11T16:01:18.600Z,0.80
2019-05-11T16:03:49.711Z,0.80
2019-05-11T16:06:18.595Z,1.87
2019-05-11T16:08:47.255Z,2.70
2019-05-11T16:11:18.116Z,1.30
2019-05-11T16:13:48.184Z,0.80
2019-05-11T16:16:16.090Z,0.80
2019-05-11T16:18:44.506Z,0.70
2019-05-11T16:21:12.960Z,0.80
2019-05-11T16:23:41.385Z,1.00
2019-05-11T16:26:09.816Z,0.90
2019-05-11T16:28:38.450Z,0.70
2019-05-11T16:31:09.080Z,0.90
2019-05-11T16:33:37.146Z,0.70
2019-05-11T16:36:05.609Z,1.00
2019-05-11T16:38:34.037Z,1.07
2019-05-11T16:41:02.900Z,1.33
2019-05-11T16:43:31.348Z,0.90
2019-05-11T16:45:59.776Z,0.87
2019-05-11T16:48:28.532Z,0.90
2019-05-11T16:50:57.935Z,1.60
2019-05-11T16:53:28.489Z,2.80
2019-05-11T16:55:57.689Z,2.00
2019-05-11T16:58:27.848Z,0.90
2019-05-11T17:00:58.279Z,1.00
2019-05-11T17:03:27.978Z,0.93
2019-05-11T17:05:58.697Z,1.23
2019-05-11T17:08:27.632Z,1.20
2019-05-11T17:10:59.645Z,1.00
2019-05-11T17:13:28.227Z,1.13
2019-05-11T17:15:58.325Z,0.83
2019-05-11T17:18:28.273Z,1.10
2019-05-11T17:20:58.500Z,0.90
2019-05-11T17:23:30.987Z,1.10
2019-05-11T17:25:57.864Z,1.10
2019-05-11T17:28:26.537Z,1.00
2019-05-11T17:30:55.040Z,1.00
2019-05-11T17:33:23.486Z,1.30
2019-05-11T17:35:51.925Z,1.07
2019-05-11T17:38:20.372Z,0.80
2019-05-11T17:40:48.821Z,0.90
2019-05-11T17:43:18.177Z,0.97
2019-05-11T17:45:47.924Z,1.10
2019-05-11T17:48:17.893Z,1.20
2019-05-11T17:50:46.493Z,1.77
2019-05-11T17:53:14.929Z,1.80
2019-05-11T17:55:43.359Z,1.27
2019-05-11T17:58:11.810Z,0.83
2019-05-11T18:00:40.254Z,0.97
2019-05-11T18:03:11.275Z,1.20
2019-05-11T18:05:38.900Z,1.33
2019-05-11T18:08:08.750Z,1.10
2019-05-11T18:10:38.505Z,1.30
2019-05-11T18:13:07.190Z,1.60
2019-05-11T18:15:37.883Z,1.27
2019-05-11T18:18:05.865Z,1.57
2019-05-11T18:20:34.358Z,2.23
2019-05-11T18:23:02.838Z,1.10
2019-05-11T18:25:31.261Z,1.47
2019-05-11T18:27:59.703Z,1.47
2019-05-11T18:30:29.289Z,1.60
2019-05-11T18:32:59.483Z,1.33
2019-05-11T18:35:28.090Z,1.40
2019-05-11T18:37:56.602Z,1.60
2019-05-11T18:40:25.051Z,1.13
2019-05-11T18:42:53.484Z,1.70
2019-05-11T18:45:21.917Z,1.50
2019-05-11T18:47:50.368Z,1.50
2019-05-11T18:50:29.996Z,1.33
2019-05-11T18:52:49.292Z,1.43
2019-05-11T18:55:18.993Z,1.33
2019-05-11T18:57:49.143Z,1.57
2019-05-11T19:00:18.545Z,1.30
2019-05-11T19:02:49.333Z,1.57
2019-05-11T19:05:18.043Z,1.60
2019-05-11T19:07:48.155Z,1.70
2019-05-11T19:10:17.048Z,1.37
2019-05-11T19:12:45.535Z,1.20
2019-05-11T19:15:14.120Z,1.50
2019-05-11T19:17:42.539Z,1.50
2019-05-11T19:20:11.213Z,1.53
2019-05-11T19:22:39.651Z,1.70
2019-05-11T19:25:08.998Z,1.60
2019-05-11T19:27:37.819Z,1.50
2019-05-11T19:30:08.169Z,1.67
2019-05-11T19:32:38.402Z,1.80
2019-05-11T19:35:08.923Z,2.10
2019-05-11T19:37:38.578Z,2.03
2019-05-11T19:40:09.167Z,2.17
2019-05-11T19:42:54.124Z,1.77
2019-05-11T19:45:23.096Z,1.90
2019-05-11T19:47:51.582Z,1.70
2019-05-11T19:50:20.031Z,2.10
2019-05-11T19:52:48.482Z,1.83
2019-05-11T19:55:18.005Z,1.90
2019-05-11T19:57:49.318Z,1.90
2019-05-11T20:00:18.783Z,1.90
2019-05-11T20:02:47.221Z,2.27
2019-05-11T20:05:18.189Z,2.57
2019-05-11T20:07:48.296Z,2.87
2019-05-11T20:10:18.529Z,2.23
2019-05-11T20:12:48.069Z,2.63
2019-05-11T20:15:18.451Z,2.20
2019-05-11T20:17:48.611Z,2.60
2019-05-11T20:20:18.428Z,2.37
2019-05-11T20:22:48.206Z,2.10
2019-05-11T20:25:18.716Z,3.07
2019-05-11T20:27:48.342Z,2.50
2019-05-11T20:30:18.579Z,2.87
2019-05-11T20:32:48.328Z,2.23
2019-05-11T20:35:17.416Z,2.60
2019-05-11T20:37:45.858Z,2.40
2019-05-11T20:40:14.419Z,2.37
2019-05-11T20:42:42.849Z,1.80
2019-05-11T20:45:11.450Z,2.17
2019-05-11T20:47:39.939Z,2.03
2019-05-11T20:50:08.785Z,1.90
2019-05-11T20:52:38.947Z,1.93
2019-05-11T20:55:08.961Z,2.30
2019-05-11T20:57:39.396Z,2.10
2019-05-11T21:00:08.729Z,2.00
2019-05-11T21:02:38.090Z,2.30
2019-05-11T21:05:08.997Z,2.03
2019-05-11T21:07:38.805Z,1.83
2019-05-11T21:10:09.121Z,2.20
2019-05-11T21:12:39.066Z,1.80
2019-05-11T21:15:09.253Z,2.47
2019-05-11T21:17:37.713Z,2.67
2019-05-11T21:20:10.394Z,2.37
2019-05-11T21:22:40.573Z,2.60
2019-05-11T21:25:09.387Z,2.60
2019-05-11T21:27:38.397Z,2.40
2019-05-11T21:30:11.047Z,2.37
2019-05-11T21:32:40.112Z,1.97
2019-05-11T21:35:09.425Z,2.40
2019-05-11T21:37:38.794Z,2.87
2019-05-11T21:40:08.722Z,2.77
2019-05-11T21:42:38.882Z,2.70
2019-05-11T21:45:09.841Z,2.53
2019-05-11T21:47:39.122Z,2.53
